sensor_id;sensor_type;location;lat;lon;timestamp;P1;durP1;ratioP1;P2;durP2;ratioP2
75234;SDS011;63817;51.228;-1.472;2023-06-22T00:01:27;17.15;;;9.77;;
75234;SDS011;63817;51.228;-1.472;2023-06-22T00:03:52;17.10;;;9.70;;
75234;SDS011;63817;51.228;-1.472;2023-06-22T00:06:17;13.75;;;9.63;;
75234;SDS011;63817;51.228;-1.472;2023-06-22T00:08:43;15.00;;;9.25;;
75234;SDS011;63817;51.228;-1.472;2023-06-22T00:11:08;16.23;;;9.30;;
75234;SDS011;63817;51.228;-1.472;2023-06-22T00:13:34;15.05;;;9.25;;
75234;SDS011;63817;51.228;-1.472;2023-06-22T00:15:59;17.83;;;9.25;;
75234;SDS011;63817;51.228;-1.472;2023-06-22T00:18:25;16.17;;;8.68;;
75234;SDS011;63817;51.228;-1.472;2023-06-22T00:20:53;13.32;;;9.07;;
75234;SDS011;63817;51.228;-1.472;2023-06-22T00:23:23;13.88;;;9.05;;
75234;SDS011;63817;51.228;-1.472;2023-06-22T00:25:48;15.50;;;9.23;;
75234;SDS011;63817;51.228;-1.472;2023-06-22T00:28:14;15.05;;;9.93;;
75234;SDS011;63817;51.228;-1.472;2023-06-22T00:30:40;15.63;;;9.32;;
75234;SDS011;63817;51.228;-1.472;2023-06-22T00:33:05;19.85;;;9.38;;
75234;SDS011;63817;51.228;-1.472;2023-06-22T00:35:32;13.85;;;9.00;;
75234;SDS011;63817;51.228;-1.472;2023-06-22T00:37:59;17.65;;;9.30;;
75234;SDS011;63817;51.228;-1.472;2023-06-22T00:40:30;19.75;;;9.52;;
75234;SDS011;63817;51.228;-1.472;2023-06-22T00:42:56;16.15;;;9.50;;
75234;SDS011;63817;51.228;-1.472;2023-06-22T00:45:22;17.92;;;9.32;;
75234;SDS011;63817;51.228;-1.472;2023-06-22T00:47:49;14.65;;;9.00;;
75234;SDS011;63817;51.228;-1.472;2023-06-22T00:50:22;15.85;;;8.88;;
75234;SDS011;63817;51.228;-1.472;2023-06-22T00:52:52;15.10;;;8.85;;
75234;SDS011;63817;51.228;-1.472;2023-06-22T00:55:21;15.30;;;9.57;;
75234;SDS011;63817;51.228;-1.472;2023-06-22T00:57:47;16.10;;;8.98;;
75234;SDS011;63817;51.228;-1.472;2023-06-22T01:00:14;19.15;;;8.95;;
75234;SDS011;63817;51.228;-1.472;2023-06-22T01:02:44;13.02;;;8.43;;
75234;SDS011;63817;51.228;-1.472;2023-06-22T01:05:17;13.57;;;8.85;;
75234;SDS011;63817;51.228;-1.472;2023-06-22T01:07:58;18.35;;;9.02;;
75234;SDS011;63817;51.228;-1.472;2023-06-22T01:13:31;14.82;;;8.82;;
75234;SDS011;63817;51.228;-1.472;2023-06-22T01:16:20;15.75;;;8.63;;
75234;SDS011;63817;51.228;-1.472;2023-06-22T01:18:47;15.27;;;9.45;;
75234;SDS011;63817;51.228;-1.472;2023-06-22T01:21:14;15.23;;;9.35;;
75234;SDS011;63817;51.228;-1.472;2023-06-22T01:28:55;17.17;;;9.60;;
75234;SDS011;63817;51.228;-1.472;2023-06-22T01:31:26;20.67;;;9.05;;
75234;SDS011;63817;51.228;-1.472;2023-06-22T01:33:53;14.13;;;8.40;;
75234;SDS011;63817;51.228;-1.472;2023-06-22T01:36:26;15.15;;;9.25;;
75234;SDS011;63817;51.228;-1.472;2023-06-22T01:38:52;14.98;;;9.32;;
75234;SDS011;63817;51.228;-1.472;2023-06-22T01:41:19;14.88;;;9.98;;
75234;SDS011;63817;51.228;-1.472;2023-06-22T01:43:45;14.38;;;8.98;;
75234;SDS011;63817;51.228;-1.472;2023-06-22T01:46:11;17.35;;;8.90;;
75234;SDS011;63817;51.228;-1.472;2023-06-22T01:48:36;20.40;;;8.82;;
75234;SDS011;63817;51.228;-1.472;2023-06-22T01:51:04;15.60;;;9.07;;
75234;SDS011;63817;51.228;-1.472;2023-06-22T01:53:29;14.98;;;9.25;;
75234;SDS011;63817;51.228;-1.472;2023-06-22T01:55:55;16.20;;;9.25;;
75234;SDS011;63817;51.228;-1.472;2023-06-22T01:58:21;17.02;;;8.82;;
75234;SDS011;63817;51.228;-1.472;2023-06-22T02:00:57;14.98;;;8.57;;
75234;SDS011;63817;51.228;-1.472;2023-06-22T02:03:32;12.73;;;7.82;;
75234;SDS011;63817;51.228;-1.472;2023-06-22T02:06:05;17.65;;;8.73;;
75234;SDS011;63817;51.228;-1.472;2023-06-22T02:08:35;17.98;;;8.50;;
75234;SDS011;63817;51.228;-1.472;2023-06-22T02:11:03;13.70;;;8.13;;
75234;SDS011;63817;51.228;-1.472;2023-06-22T02:13:31;13.90;;;8.20;;
75234;SDS011;63817;51.228;-1.472;2023-06-22T02:15:57;10.45;;;7.30;;
75234;SDS011;63817;51.228;-1.472;2023-06-22T02:18:23;14.25;;;8.02;;
75234;SDS011;63817;51.228;-1.472;2023-06-22T02:20:48;17.27;;;7.78;;
75234;SDS011;63817;51.228;-1.472;2023-06-22T02:23:13;14.70;;;8.52;;
75234;SDS011;63817;51.228;-1.472;2023-06-22T02:25:39;11.82;;;7.63;;
75234;SDS011;63817;51.228;-1.472;2023-06-22T02:28:04;11.43;;;7.68;;
75234;SDS011;63817;51.228;-1.472;2023-06-22T02:30:30;12.25;;;8.20;;
75234;SDS011;63817;51.228;-1.472;2023-06-22T02:32:55;16.70;;;7.28;;
75234;SDS011;63817;51.228;-1.472;2023-06-22T02:35:27;10.57;;;8.20;;
75234;SDS011;63817;51.228;-1.472;2023-06-22T02:37:57;13.68;;;8.30;;
75234;SDS011;63817;51.228;-1.472;2023-06-22T02:40:24;12.45;;;8.98;;
75234;SDS011;63817;51.228;-1.472;2023-06-22T02:42:50;17.63;;;8.93;;
75234;SDS011;63817;51.228;-1.472;2023-06-22T02:45:15;15.30;;;9.50;;
75234;SDS011;63817;51.228;-1.472;2023-06-22T02:47:41;13.98;;;10.48;;
75234;SDS011;63817;51.228;-1.472;2023-06-22T02:50:06;13.02;;;8.27;;
75234;SDS011;63817;51.228;-1.472;2023-06-22T02:52:31;12.23;;;8.20;;
75234;SDS011;63817;51.228;-1.472;2023-06-22T02:54:57;14.18;;;8.90;;
75234;SDS011;63817;51.228;-1.472;2023-06-22T02:57:22;15.38;;;8.48;;
75234;SDS011;63817;51.228;-1.472;2023-06-22T02:59:48;15.05;;;9.02;;
75234;SDS011;63817;51.228;-1.472;2023-06-22T03:02:13;15.63;;;9.57;;
75234;SDS011;63817;51.228;-1.472;2023-06-22T03:04:39;24.40;;;12.77;;
75234;SDS011;63817;51.228;-1.472;2023-06-22T03:07:04;20.25;;;10.88;;
75234;SDS011;63817;51.228;-1.472;2023-06-22T03:09:29;60.05;;;15.10;;
75234;SDS011;63817;51.228;-1.472;2023-06-22T03:11:55;26.35;;;15.50;;
75234;SDS011;63817;51.228;-1.472;2023-06-22T03:14:20;31.02;;;17.55;;
75234;SDS011;63817;51.228;-1.472;2023-06-22T03:16:46;34.65;;;16.45;;
75234;SDS011;63817;51.228;-1.472;2023-06-22T03:19:11;30.38;;;16.88;;
75234;SDS011;63817;51.228;-1.472;2023-06-22T03:21:37;28.17;;;14.50;;
75234;SDS011;63817;51.228;-1.472;2023-06-22T03:24:03;21.75;;;11.95;;
75234;SDS011;63817;51.228;-1.472;2023-06-22T03:26:30;19.15;;;11.85;;
75234;SDS011;63817;51.228;-1.472;2023-06-22T03:28:55;24.83;;;14.43;;
75234;SDS011;63817;51.228;-1.472;2023-06-22T03:31:20;52.42;;;17.95;;
75234;SDS011;63817;51.228;-1.472;2023-06-22T03:33:46;30.10;;;15.07;;
75234;SDS011;63817;51.228;-1.472;2023-06-22T03:36:13;29.15;;;14.35;;
75234;SDS011;63817;51.228;-1.472;2023-06-22T03:38:39;29.13;;;14.70;;
75234;SDS011;63817;51.228;-1.472;2023-06-22T03:41:04;32.50;;;15.10;;
75234;SDS011;63817;51.228;-1.472;2023-06-22T03:43:30;31.85;;;14.75;;
75234;SDS011;63817;51.228;-1.472;2023-06-22T03:45:55;30.25;;;15.23;;
75234;SDS011;63817;51.228;-1.472;2023-06-22T03:48:21;33.67;;;16.00;;
75234;SDS011;63817;51.228;-1.472;2023-06-22T03:50:46;36.30;;;15.57;;
75234;SDS011;63817;51.228;-1.472;2023-06-22T03:53:11;36.30;;;15.63;;
75234;SDS011;63817;51.228;-1.472;2023-06-22T03:55:40;35.50;;;17.02;;
75234;SDS011;63817;51.228;-1.472;2023-06-22T03:58:12;37.80;;;16.52;;
75234;SDS011;63817;51.228;-1.472;2023-06-22T04:00:38;46.92;;;16.30;;
75234;SDS011;63817;51.228;-1.472;2023-06-22T04:03:03;52.85;;;16.20;;
75234;SDS011;63817;51.228;-1.472;2023-06-22T04:05:28;46.35;;;15.70;;
75234;SDS011;63817;51.228;-1.472;2023-06-22T04:07:54;48.53;;;15.90;;
75234;SDS011;63817;51.228;-1.472;2023-06-22T04:10:19;63.70;;;17.50;;
75234;SDS011;63817;51.228;-1.472;2023-06-22T04:12:45;64.65;;;18.38;;
75234;SDS011;63817;51.228;-1.472;2023-06-22T04:15:10;65.95;;;19.48;;
75234;SDS011;63817;51.228;-1.472;2023-06-22T04:17:37;87.63;;;19.40;;
75234;SDS011;63817;51.228;-1.472;2023-06-22T04:20:02;72.43;;;19.15;;
75234;SDS011;63817;51.228;-1.472;2023-06-22T04:22:29;124.05;;;21.33;;
75234;SDS011;63817;51.228;-1.472;2023-06-22T04:24:54;91.03;;;22.00;;
75234;SDS011;63817;51.228;-1.472;2023-06-22T04:27:20;138.10;;;22.88;;
75234;SDS011;63817;51.228;-1.472;2023-06-22T04:29:48;135.80;;;24.52;;
75234;SDS011;63817;51.228;-1.472;2023-06-22T04:32:16;124.93;;;22.70;;
75234;SDS011;63817;51.228;-1.472;2023-06-22T04:34:42;95.28;;;23.98;;
75234;SDS011;63817;51.228;-1.472;2023-06-22T04:37:08;87.72;;;24.10;;
75234;SDS011;63817;51.228;-1.472;2023-06-22T04:39:34;115.68;;;21.85;;
75234;SDS011;63817;51.228;-1.472;2023-06-22T04:41:59;125.25;;;16.42;;
75234;SDS011;63817;51.228;-1.472;2023-06-22T04:44:25;122.53;;;18.33;;
75234;SDS011;63817;51.228;-1.472;2023-06-22T04:46:52;88.32;;;18.67;;
75234;SDS011;63817;51.228;-1.472;2023-06-22T04:49:28;86.35;;;19.83;;
75234;SDS011;63817;51.228;-1.472;2023-06-22T04:52:01;81.28;;;19.98;;
75234;SDS011;63817;51.228;-1.472;2023-06-22T04:54:27;56.65;;;15.75;;
75234;SDS011;63817;51.228;-1.472;2023-06-22T04:56:53;45.80;;;16.70;;
75234;SDS011;63817;51.228;-1.472;2023-06-22T04:59:22;52.97;;;16.73;;
75234;SDS011;63817;51.228;-1.472;2023-06-22T05:01:52;56.15;;;17.70;;
75234;SDS011;63817;51.228;-1.472;2023-06-22T05:04:18;56.70;;;18.77;;
75234;SDS011;63817;51.228;-1.472;2023-06-22T05:06:44;45.60;;;16.55;;
75234;SDS011;63817;51.228;-1.472;2023-06-22T05:09:10;59.65;;;15.82;;
75234;SDS011;63817;51.228;-1.472;2023-06-22T05:11:37;39.20;;;14.57;;
75234;SDS011;63817;51.228;-1.472;2023-06-22T05:14:03;35.13;;;14.65;;
75234;SDS011;63817;51.228;-1.472;2023-06-22T05:16:28;31.20;;;13.98;;
75234;SDS011;63817;51.228;-1.472;2023-06-22T05:18:54;44.85;;;15.65;;
75234;SDS011;63817;51.228;-1.472;2023-06-22T05:21:23;60.97;;;14.27;;
75234;SDS011;63817;51.228;-1.472;2023-06-22T05:23:53;63.90;;;15.05;;
75234;SDS011;63817;51.228;-1.472;2023-06-22T05:26:20;41.40;;;15.90;;
75234;SDS011;63817;51.228;-1.472;2023-06-22T05:28:45;77.40;;;16.85;;
75234;SDS011;63817;51.228;-1.472;2023-06-22T05:31:12;53.05;;;15.18;;
75234;SDS011;63817;51.228;-1.472;2023-06-22T05:33:38;69.88;;;14.88;;
75234;SDS011;63817;51.228;-1.472;2023-06-22T05:36:04;65.45;;;16.20;;
75234;SDS011;63817;51.228;-1.472;2023-06-22T05:38:30;54.42;;;15.27;;
75234;SDS011;63817;51.228;-1.472;2023-06-22T05:40:56;70.55;;;13.80;;
75234;SDS011;63817;51.228;-1.472;2023-06-22T05:43:21;78.72;;;14.77;;
75234;SDS011;63817;51.228;-1.472;2023-06-22T05:45:46;163.23;;;14.68;;
75234;SDS011;63817;51.228;-1.472;2023-06-22T05:48:12;81.40;;;13.77;;
75234;SDS011;63817;51.228;-1.472;2023-06-22T05:50:37;48.25;;;13.50;;
75234;SDS011;63817;51.228;-1.472;2023-06-22T05:53:03;73.13;;;13.38;;
75234;SDS011;63817;51.228;-1.472;2023-06-22T05:55:28;32.47;;;13.55;;
75234;SDS011;63817;51.228;-1.472;2023-06-22T05:57:53;83.78;;;14.95;;
75234;SDS011;63817;51.228;-1.472;2023-06-22T06:00:19;37.25;;;15.27;;
75234;SDS011;63817;51.228;-1.472;2023-06-22T06:02:44;35.00;;;15.88;;
75234;SDS011;63817;51.228;-1.472;2023-06-22T06:05:11;48.50;;;14.60;;
75234;SDS011;63817;51.228;-1.472;2023-06-22T06:07:38;120.97;;;15.27;;
75234;SDS011;63817;51.228;-1.472;2023-06-22T06:10:04;44.58;;;15.23;;
75234;SDS011;63817;51.228;-1.472;2023-06-22T06:12:31;150.63;;;14.93;;
75234;SDS011;63817;51.228;-1.472;2023-06-22T06:14:56;47.80;;;14.90;;
75234;SDS011;63817;51.228;-1.472;2023-06-22T06:17:22;63.67;;;13.65;;
75234;SDS011;63817;51.228;-1.472;2023-06-22T06:19:47;25.13;;;13.57;;
75234;SDS011;63817;51.228;-1.472;2023-06-22T06:22:12;39.53;;;13.57;;
75234;SDS011;63817;51.228;-1.472;2023-06-22T06:24:38;38.13;;;13.93;;
75234;SDS011;63817;51.228;-1.472;2023-06-22T06:27:03;54.28;;;13.00;;
75234;SDS011;63817;51.228;-1.472;2023-06-22T06:29:30;27.88;;;13.02;;
75234;SDS011;63817;51.228;-1.472;2023-06-22T06:31:55;81.10;;;12.38;;
75234;SDS011;63817;51.228;-1.472;2023-06-22T06:34:21;25.10;;;12.75;;
75234;SDS011;63817;51.228;-1.472;2023-06-22T06:36:47;25.50;;;13.45;;
75234;SDS011;63817;51.228;-1.472;2023-06-22T06:39:12;31.25;;;12.38;;
75234;SDS011;63817;51.228;-1.472;2023-06-22T06:41:38;38.08;;;11.50;;
75234;SDS011;63817;51.228;-1.472;2023-06-22T06:44:03;22.08;;;12.32;;
75234;SDS011;63817;51.228;-1.472;2023-06-22T06:46:29;26.77;;;12.27;;
75234;SDS011;63817;51.228;-1.472;2023-06-22T06:48:54;24.90;;;12.55;;
75234;SDS011;63817;51.228;-1.472;2023-06-22T06:51:20;60.47;;;12.23;;
75234;SDS011;63817;51.228;-1.472;2023-06-22T06:53:45;24.48;;;12.25;;
75234;SDS011;63817;51.228;-1.472;2023-06-22T06:56:10;20.27;;;11.60;;
75234;SDS011;63817;51.228;-1.472;2023-06-22T06:58:36;19.75;;;12.20;;
75234;SDS011;63817;51.228;-1.472;2023-06-22T07:01:02;18.98;;;11.73;;
75234;SDS011;63817;51.228;-1.472;2023-06-22T07:03:28;24.00;;;11.85;;
75234;SDS011;63817;51.228;-1.472;2023-06-22T07:05:53;21.40;;;12.77;;
75234;SDS011;63817;51.228;-1.472;2023-06-22T07:08:19;18.15;;;11.00;;
75234;SDS011;63817;51.228;-1.472;2023-06-22T07:10:44;17.27;;;11.80;;
75234;SDS011;63817;51.228;-1.472;2023-06-22T07:13:09;18.58;;;11.90;;
75234;SDS011;63817;51.228;-1.472;2023-06-22T07:15:35;16.50;;;10.65;;
75234;SDS011;63817;51.228;-1.472;2023-06-22T07:18:00;16.45;;;11.75;;
75234;SDS011;63817;51.228;-1.472;2023-06-22T07:20:26;15.52;;;11.85;;
75234;SDS011;63817;51.228;-1.472;2023-06-22T07:22:51;16.65;;;12.35;;
75234;SDS011;63817;51.228;-1.472;2023-06-22T07:25:17;18.95;;;12.25;;
75234;SDS011;63817;51.228;-1.472;2023-06-22T07:27:46;18.08;;;13.63;;
75234;SDS011;63817;51.228;-1.472;2023-06-22T07:30:21;19.02;;;13.18;;
75234;SDS011;63817;51.228;-1.472;2023-06-22T07:32:46;20.08;;;13.75;;
75234;SDS011;63817;51.228;-1.472;2023-06-22T07:35:12;18.02;;;11.70;;
75234;SDS011;63817;51.228;-1.472;2023-06-22T07:37:37;21.33;;;14.25;;
75234;SDS011;63817;51.228;-1.472;2023-06-22T07:40:03;19.83;;;13.95;;
75234;SDS011;63817;51.228;-1.472;2023-06-22T07:42:31;20.67;;;14.35;;
75234;SDS011;63817;51.228;-1.472;2023-06-22T07:44:58;21.88;;;14.32;;
75234;SDS011;63817;51.228;-1.472;2023-06-22T07:47:23;22.15;;;13.13;;
75234;SDS011;63817;51.228;-1.472;2023-06-22T07:49:53;18.45;;;12.98;;
75234;SDS011;63817;51.228;-1.472;2023-06-22T07:52:19;16.88;;;12.20;;
75234;SDS011;63817;51.228;-1.472;2023-06-22T07:54:45;16.05;;;12.10;;
75234;SDS011;63817;51.228;-1.472;2023-06-22T07:57:11;18.90;;;13.82;;
75234;SDS011;63817;51.228;-1.472;2023-06-22T07:59:36;21.95;;;13.30;;
75234;SDS011;63817;51.228;-1.472;2023-06-22T08:02:02;18.58;;;13.45;;
75234;SDS011;63817;51.228;-1.472;2023-06-22T08:04:28;19.75;;;13.88;;
75234;SDS011;63817;51.228;-1.472;2023-06-22T08:06:55;20.98;;;13.57;;
75234;SDS011;63817;51.228;-1.472;2023-06-22T08:09:21;18.65;;;13.02;;
75234;SDS011;63817;51.228;-1.472;2023-06-22T08:11:47;15.57;;;11.70;;
75234;SDS011;63817;51.228;-1.472;2023-06-22T08:14:13;19.20;;;13.48;;
75234;SDS011;63817;51.228;-1.472;2023-06-22T08:16:39;19.63;;;13.30;;
75234;SDS011;63817;51.228;-1.472;2023-06-22T08:19:04;19.65;;;12.43;;
75234;SDS011;63817;51.228;-1.472;2023-06-22T08:21:30;16.20;;;12.27;;
75234;SDS011;63817;51.228;-1.472;2023-06-22T08:23:55;15.73;;;12.35;;
75234;SDS011;63817;51.228;-1.472;2023-06-22T08:26:21;21.55;;;13.43;;
75234;SDS011;63817;51.228;-1.472;2023-06-22T08:28:46;21.73;;;15.05;;
75234;SDS011;63817;51.228;-1.472;2023-06-22T08:31:12;17.55;;;13.43;;
75234;SDS011;63817;51.228;-1.472;2023-06-22T08:33:39;20.30;;;13.40;;
75234;SDS011;63817;51.228;-1.472;2023-06-22T08:36:04;21.73;;;13.18;;
75234;SDS011;63817;51.228;-1.472;2023-06-22T08:38:33;19.23;;;12.68;;
75234;SDS011;63817;51.228;-1.472;2023-06-22T08:40:58;17.70;;;13.50;;
75234;SDS011;63817;51.228;-1.472;2023-06-22T08:43:25;16.13;;;10.98;;
75234;SDS011;63817;51.228;-1.472;2023-06-22T08:45:50;16.42;;;12.38;;
75234;SDS011;63817;51.228;-1.472;2023-06-22T08:48:15;16.58;;;12.40;;
75234;SDS011;63817;51.228;-1.472;2023-06-22T08:50:41;17.70;;;12.80;;
75234;SDS011;63817;51.228;-1.472;2023-06-22T08:53:06;15.80;;;11.77;;
75234;SDS011;63817;51.228;-1.472;2023-06-22T08:55:32;16.30;;;11.82;;
75234;SDS011;63817;51.228;-1.472;2023-06-22T08:57:58;17.55;;;10.63;;
75234;SDS011;63817;51.228;-1.472;2023-06-22T09:00:23;25.00;;;15.55;;
75234;SDS011;63817;51.228;-1.472;2023-06-22T09:02:49;16.42;;;11.30;;
75234;SDS011;63817;51.228;-1.472;2023-06-22T09:05:14;15.00;;;10.63;;
75234;SDS011;63817;51.228;-1.472;2023-06-22T09:07:40;17.90;;;11.75;;
75234;SDS011;63817;51.228;-1.472;2023-06-22T09:10:06;16.25;;;9.98;;
75234;SDS011;63817;51.228;-1.472;2023-06-22T09:12:32;13.40;;;9.60;;
75234;SDS011;63817;51.228;-1.472;2023-06-22T09:15:01;14.50;;;9.98;;
75234;SDS011;63817;51.228;-1.472;2023-06-22T09:17:27;14.82;;;9.73;;
75234;SDS011;63817;51.228;-1.472;2023-06-22T09:19:53;15.82;;;8.60;;
75234;SDS011;63817;51.228;-1.472;2023-06-22T09:22:18;14.02;;;9.23;;
75234;SDS011;63817;51.228;-1.472;2023-06-22T09:24:44;11.32;;;8.25;;
75234;SDS011;63817;51.228;-1.472;2023-06-22T09:27:09;9.15;;;8.07;;
75234;SDS011;63817;51.228;-1.472;2023-06-22T09:29:35;15.20;;;7.47;;
75234;SDS011;63817;51.228;-1.472;2023-06-22T09:32:00;13.45;;;7.20;;
75234;SDS011;63817;51.228;-1.472;2023-06-22T09:34:26;8.88;;;6.13;;
75234;SDS011;63817;51.228;-1.472;2023-06-22T09:36:51;8.18;;;5.68;;
75234;SDS011;63817;51.228;-1.472;2023-06-22T09:39:17;8.90;;;6.63;;
75234;SDS011;63817;51.228;-1.472;2023-06-22T09:41:43;11.70;;;6.63;;
75234;SDS011;63817;51.228;-1.472;2023-06-22T09:44:08;13.18;;;6.70;;
75234;SDS011;63817;51.228;-1.472;2023-06-22T09:46:34;13.18;;;6.45;;
75234;SDS011;63817;51.228;-1.472;2023-06-22T09:48:59;6.90;;;4.85;;
75234;SDS011;63817;51.228;-1.472;2023-06-22T09:51:24;7.65;;;4.60;;
75234;SDS011;63817;51.228;-1.472;2023-06-22T09:53:50;9.05;;;5.30;;
75234;SDS011;63817;51.228;-1.472;2023-06-22T09:56:16;9.95;;;5.18;;
75234;SDS011;63817;51.228;-1.472;2023-06-22T09:58:42;5.85;;;4.55;;
75234;SDS011;63817;51.228;-1.472;2023-06-22T10:01:08;10.10;;;4.50;;
75234;SDS011;63817;51.228;-1.472;2023-06-22T10:03:34;6.50;;;3.78;;
75234;SDS011;63817;51.228;-1.472;2023-06-22T10:05:59;5.30;;;3.83;;
75234;SDS011;63817;51.228;-1.472;2023-06-22T10:08:24;5.97;;;3.60;;
75234;SDS011;63817;51.228;-1.472;2023-06-22T10:10:50;5.03;;;3.70;;
75234;SDS011;63817;51.228;-1.472;2023-06-22T10:13:15;9.27;;;3.70;;
75234;SDS011;63817;51.228;-1.472;2023-06-22T10:15:41;6.40;;;3.67;;
75234;SDS011;63817;51.228;-1.472;2023-06-22T10:18:07;7.80;;;3.75;;
75234;SDS011;63817;51.228;-1.472;2023-06-22T10:20:33;6.03;;;3.50;;
75234;SDS011;63817;51.228;-1.472;2023-06-22T10:22:58;4.05;;;3.28;;
75234;SDS011;63817;51.228;-1.472;2023-06-22T10:25:24;8.85;;;3.80;;
75234;SDS011;63817;51.228;-1.472;2023-06-22T10:27:49;6.60;;;3.90;;
75234;SDS011;63817;51.228;-1.472;2023-06-22T10:30:14;6.75;;;4.57;;
75234;SDS011;63817;51.228;-1.472;2023-06-22T10:32:41;8.13;;;4.32;;
75234;SDS011;63817;51.228;-1.472;2023-06-22T10:35:09;10.13;;;4.88;;
75234;SDS011;63817;51.228;-1.472;2023-06-22T10:37:41;7.35;;;4.38;;
75234;SDS011;63817;51.228;-1.472;2023-06-22T10:40:08;4.93;;;3.72;;
75234;SDS011;63817;51.228;-1.472;2023-06-22T10:42:34;6.45;;;3.90;;
75234;SDS011;63817;51.228;-1.472;2023-06-22T10:44:59;5.55;;;3.25;;
75234;SDS011;63817;51.228;-1.472;2023-06-22T10:47:24;7.93;;;3.92;;
75234;SDS011;63817;51.228;-1.472;2023-06-22T10:49:50;6.25;;;3.40;;
75234;SDS011;63817;51.228;-1.472;2023-06-22T10:52:15;3.42;;;3.03;;
75234;SDS011;63817;51.228;-1.472;2023-06-22T10:54:40;6.32;;;3.40;;
75234;SDS011;63817;51.228;-1.472;2023-06-22T10:57:06;6.30;;;2.90;;
75234;SDS011;63817;51.228;-1.472;2023-06-22T10:59:31;4.50;;;3.15;;
75234;SDS011;63817;51.228;-1.472;2023-06-22T11:01:57;8.80;;;3.38;;
75234;SDS011;63817;51.228;-1.472;2023-06-22T11:04:23;3.97;;;3.28;;
75234;SDS011;63817;51.228;-1.472;2023-06-22T11:06:49;7.20;;;3.50;;
75234;SDS011;63817;51.228;-1.472;2023-06-22T11:09:14;4.65;;;3.00;;
75234;SDS011;63817;51.228;-1.472;2023-06-22T11:11:49;8.07;;;3.95;;
75234;SDS011;63817;51.228;-1.472;2023-06-22T11:14:16;6.53;;;3.03;;
75234;SDS011;63817;51.228;-1.472;2023-06-22T11:16:41;7.95;;;4.15;;
75234;SDS011;63817;51.228;-1.472;2023-06-22T11:19:07;6.47;;;3.35;;
75234;SDS011;63817;51.228;-1.472;2023-06-22T11:21:32;5.95;;;3.08;;
75234;SDS011;63817;51.228;-1.472;2023-06-22T11:23:58;4.82;;;3.42;;
75234;SDS011;63817;51.228;-1.472;2023-06-22T11:26:24;7.80;;;3.30;;
75234;SDS011;63817;51.228;-1.472;2023-06-22T11:28:52;5.43;;;3.40;;
75234;SDS011;63817;51.228;-1.472;2023-06-22T11:31:18;8.68;;;3.75;;
75234;SDS011;63817;51.228;-1.472;2023-06-22T11:33:43;5.03;;;3.60;;
75234;SDS011;63817;51.228;-1.472;2023-06-22T11:36:10;7.63;;;3.70;;
75234;SDS011;63817;51.228;-1.472;2023-06-22T11:38:36;9.38;;;3.72;;
75234;SDS011;63817;51.228;-1.472;2023-06-22T11:41:04;5.28;;;3.08;;
75234;SDS011;63817;51.228;-1.472;2023-06-22T11:43:30;5.43;;;3.50;;
75234;SDS011;63817;51.228;-1.472;2023-06-22T11:45:56;4.68;;;3.40;;
75234;SDS011;63817;51.228;-1.472;2023-06-22T11:48:22;7.88;;;4.03;;
75234;SDS011;63817;51.228;-1.472;2023-06-22T11:50:51;6.53;;;3.30;;
75234;SDS011;63817;51.228;-1.472;2023-06-22T11:53:16;3.92;;;3.03;;
75234;SDS011;63817;51.228;-1.472;2023-06-22T11:55:42;5.07;;;3.28;;
75234;SDS011;63817;51.228;-1.472;2023-06-22T11:58:08;4.38;;;2.80;;
75234;SDS011;63817;51.228;-1.472;2023-06-22T12:00:33;3.25;;;2.72;;
75234;SDS011;63817;51.228;-1.472;2023-06-22T12:02:59;5.00;;;2.63;;
75234;SDS011;63817;51.228;-1.472;2023-06-22T12:05:24;5.78;;;2.95;;
75234;SDS011;63817;51.228;-1.472;2023-06-22T12:07:52;10.07;;;2.92;;
75234;SDS011;63817;51.228;-1.472;2023-06-22T12:10:18;3.78;;;3.00;;
75234;SDS011;63817;51.228;-1.472;2023-06-22T12:12:43;5.82;;;3.30;;
75234;SDS011;63817;51.228;-1.472;2023-06-22T12:15:09;4.95;;;3.03;;
75234;SDS011;63817;51.228;-1.472;2023-06-22T12:17:35;6.13;;;3.08;;
75234;SDS011;63817;51.228;-1.472;2023-06-22T12:20:01;4.65;;;2.92;;
75234;SDS011;63817;51.228;-1.472;2023-06-22T12:22:30;5.05;;;3.10;;
75234;SDS011;63817;51.228;-1.472;2023-06-22T12:24:56;4.18;;;3.38;;
75234;SDS011;63817;51.228;-1.472;2023-06-22T12:27:21;3.90;;;2.90;;
75234;SDS011;63817;51.228;-1.472;2023-06-22T12:29:46;4.07;;;2.92;;
75234;SDS011;63817;51.228;-1.472;2023-06-22T12:32:12;7.18;;;2.50;;
75234;SDS011;63817;51.228;-1.472;2023-06-22T12:34:38;4.82;;;3.00;;
75234;SDS011;63817;51.228;-1.472;2023-06-22T12:37:04;4.63;;;2.30;;
75234;SDS011;63817;51.228;-1.472;2023-06-22T12:39:31;4.65;;;2.90;;
75234;SDS011;63817;51.228;-1.472;2023-06-22T12:41:57;4.13;;;2.97;;
75234;SDS011;63817;51.228;-1.472;2023-06-22T12:44:22;6.53;;;2.80;;
75234;SDS011;63817;51.228;-1.472;2023-06-22T12:46:47;3.83;;;2.40;;
75234;SDS011;63817;51.228;-1.472;2023-06-22T12:49:13;5.07;;;2.80;;
75234;SDS011;63817;51.228;-1.472;2023-06-22T12:51:41;4.90;;;2.92;;
75234;SDS011;63817;51.228;-1.472;2023-06-22T12:54:08;3.00;;;2.65;;
75234;SDS011;63817;51.228;-1.472;2023-06-22T12:56:33;3.53;;;2.47;;
75234;SDS011;63817;51.228;-1.472;2023-06-22T12:58:59;3.83;;;2.20;;
75234;SDS011;63817;51.228;-1.472;2023-06-22T13:01:26;3.17;;;2.47;;
75234;SDS011;63817;51.228;-1.472;2023-06-22T13:03:52;5.50;;;2.70;;
75234;SDS011;63817;51.228;-1.472;2023-06-22T13:06:18;4.25;;;2.88;;
75234;SDS011;63817;51.228;-1.472;2023-06-22T13:08:43;3.97;;;2.47;;
75234;SDS011;63817;51.228;-1.472;2023-06-22T13:11:09;6.72;;;2.60;;
75234;SDS011;63817;51.228;-1.472;2023-06-22T13:13:34;2.85;;;2.65;;
75234;SDS011;63817;51.228;-1.472;2023-06-22T13:16:00;5.80;;;2.40;;
75234;SDS011;63817;51.228;-1.472;2023-06-22T13:18:25;3.70;;;2.60;;
75234;SDS011;63817;51.228;-1.472;2023-06-22T13:20:51;4.93;;;2.70;;
75234;SDS011;63817;51.228;-1.472;2023-06-22T13:23:18;3.65;;;2.38;;
75234;SDS011;63817;51.228;-1.472;2023-06-22T13:25:43;4.28;;;2.67;;
75234;SDS011;63817;51.228;-1.472;2023-06-22T13:28:09;5.10;;;2.47;;
75234;SDS011;63817;51.228;-1.472;2023-06-22T13:30:35;3.53;;;2.47;;
75234;SDS011;63817;51.228;-1.472;2023-06-22T13:33:01;5.80;;;2.60;;
75234;SDS011;63817;51.228;-1.472;2023-06-22T13:35:26;8.38;;;3.13;;
75234;SDS011;63817;51.228;-1.472;2023-06-22T13:37:51;4.55;;;3.00;;
75234;SDS011;63817;51.228;-1.472;2023-06-22T13:40:17;3.97;;;2.58;;
75234;SDS011;63817;51.228;-1.472;2023-06-22T13:42:42;3.80;;;2.60;;
75234;SDS011;63817;51.228;-1.472;2023-06-22T13:45:08;3.92;;;2.47;;
75234;SDS011;63817;51.228;-1.472;2023-06-22T13:47:33;3.83;;;3.00;;
75234;SDS011;63817;51.228;-1.472;2023-06-22T13:49:59;7.10;;;2.78;;
75234;SDS011;63817;51.228;-1.472;2023-06-22T13:52:24;6.50;;;3.20;;
75234;SDS011;63817;51.228;-1.472;2023-06-22T13:54:50;3.20;;;2.60;;
75234;SDS011;63817;51.228;-1.472;2023-06-22T13:57:15;5.97;;;2.75;;
75234;SDS011;63817;51.228;-1.472;2023-06-22T13:59:41;5.28;;;2.70;;
75234;SDS011;63817;51.228;-1.472;2023-06-22T14:02:06;3.60;;;2.55;;
75234;SDS011;63817;51.228;-1.472;2023-06-22T14:04:32;4.70;;;2.90;;
75234;SDS011;63817;51.228;-1.472;2023-06-22T14:06:58;3.33;;;2.65;;
75234;SDS011;63817;51.228;-1.472;2023-06-22T14:09:23;4.22;;;2.97;;
75234;SDS011;63817;51.228;-1.472;2023-06-22T14:11:49;3.30;;;3.00;;
75234;SDS011;63817;51.228;-1.472;2023-06-22T14:14:14;3.70;;;2.53;;
75234;SDS011;63817;51.228;-1.472;2023-06-22T14:16:39;6.65;;;2.90;;
75234;SDS011;63817;51.228;-1.472;2023-06-22T14:19:05;6.25;;;3.28;;
75234;SDS011;63817;51.228;-1.472;2023-06-22T14:21:30;4.80;;;2.67;;
75234;SDS011;63817;51.228;-1.472;2023-06-22T14:23:56;3.42;;;2.40;;